Time;durP1;ratioP1;P1;durP2;ratioP2;P2;SDS_P1;SDS_P2;PMS_P1;PMS_P2;Temp;Humidity;BMP_temperature;BMP_pressure;BME280_temperature;BME280_humidity;BME280_pressure;Samples;Min_cycle;Max_cycle;Signal;HPM_P1;HPM_P2
2021/08/07 00:00:18;;;;;;;3.38;2.53;;;17.00;99.90;;;;;;4983309;28;20046;-67
2021/08/07 00:02:44;;;;;;;4.75;3.13;;;16.90;99.90;;;;;;4983651;28;20054;-64
2021/08/07 00:05:12;;;;;;;4.93;3.40;;;16.90;99.90;;;;;;4983876;28;20686;-68
2021/08/07 00:07:39;;;;;;;3.08;2.83;;;16.90;99.90;;;;;;4976705;28;20082;-65
2021/08/07 00:10:09;;;;;;;2.28;2.08;;;16.90;99.90;;;;;;4978925;28;20042;-64
2021/08/07 00:12:37;;;;;;;;;;;16.90;99.90;;;;;;4983131;28;20050;-69
2021/08/07 00:15:05;;;;;;;3.42;2.33;;;16.80;99.90;;;;;;4983738;28;19925;-64
2021/08/07 00:17:32;;;;;;;4.00;2.65;;;16.80;99.90;;;;;;4983468;28;20082;-67
2021/08/07 00:19:59;;;;;;;2.17;1.98;;;16.80;99.90;;;;;;4984550;28;20078;-66
2021/08/07 00:22:27;;;;;;;5.60;2.20;;;16.80;99.90;;;;;;4980227;28;20097;-66
2021/08/07 00:24:54;;;;;;;3.85;3.38;;;16.80;99.90;;;;;;4985591;28;20469;-70
2021/08/07 00:27:21;;;;;;;6.10;3.03;;;16.80;99.90;;;;;;4981970;28;20050;-64
2021/08/07 00:29:48;;;;;;;4.93;2.42;;;16.70;99.90;;;;;;4970484;28;20481;-68
2021/08/07 00:32:15;;;;;;;5.45;2.58;;;16.70;99.90;;;;;;4977828;28;20046;-71
2021/08/07 00:34:44;;;;;;;4.60;2.67;;;16.70;99.90;;;;;;4984175;28;20054;-68
2021/08/07 00:37:11;;;;;;;4.65;3.05;;;16.70;99.90;;;;;;4981239;28;20039;-65
2021/08/07 00:39:50;;;;;;;5.60;2.30;;;16.70;99.90;;;;;;4976911;28;20093;-68
2021/08/07 00:42:17;;;;;;;5.70;2.53;;;16.70;99.90;;;;;;4980578;28;20042;-66
2021/08/07 00:44:44;;;;;;;2.92;2.40;;;16.70;99.90;;;;;;4982871;28;20089;-68
2021/08/07 00:47:13;;;;;;;2.70;2.50;;;16.70;99.90;;;;;;4980902;28;20088;-66
2021/08/07 00:49:43;;;;;;;4.40;2.15;;;16.80;99.90;;;;;;4982618;28;20043;-67
2021/08/07 00:52:12;;;;;;;2.80;2.50;;;16.80;99.90;;;;;;4982596;28;20085;-70
2021/08/07 00:54:44;;;;;;;3.33;2.83;;;16.70;99.90;;;;;;4982483;28;20053;-64
2021/08/07 00:57:12;;;;;;;3.35;2.53;;;16.70;99.90;;;;;;4982442;28;20042;-68
2021/08/07 00:59:40;;;;;;;6.15;3.10;;;16.70;99.90;;;;;;4982212;28;20035;-68
2021/08/07 01:02:16;;;;;;;3.85;3.08;;;16.70;99.90;;;;;;4983237;28;20137;-69
2021/08/07 01:04:56;;;;;;;2.67;2.47;;;16.70;99.90;;;;;;4978463;28;20724;-68
2021/08/07 01:07:54;;;;;;;3.20;2.95;;;16.60;99.90;;;;;;4983483;28;20150;-65
2021/08/07 01:10:39;;;;;;;5.50;2.63;;;16.60;99.90;;;;;;4981857;28;20675;-66
2021/08/07 01:13:19;;;;;;;6.30;2.83;;;16.60;99.90;;;;;;4996829;28;20100;-66
2021/08/07 01:15:59;;;;;;;3.45;3.15;;;16.60;99.90;;;;;;4983394;28;20141;-65
2021/08/07 01:18:30;;;;;;;4.28;2.88;;;16.60;99.90;;;;;;4979202;28;20066;-69
2021/08/07 01:20:59;;;;;;;2.97;2.65;;;16.60;99.90;;;;;;4972946;28;20059;-70
2021/08/07 01:23:48;;;;;;;3.65;2.30;;;16.60;99.90;;;;;;4997502;28;20560;-65
2021/08/07 01:26:29;;;;;;;2.70;2.35;;;16.60;99.90;;;;;;4979500;28;20050;-65
2021/08/07 01:29:17;;;;;;;3.15;2.85;;;16.60;99.90;;;;;;4981928;28;20062;-68
2021/08/07 01:31:52;;;;;;;3.88;3.00;;;16.70;99.90;;;;;;4978845;28;20120;-65
2021/08/07 01:34:27;;;;;;;3.58;2.67;;;16.70;99.90;;;;;;4986873;28;20042;-65
2021/08/07 01:36:55;;;;;;;5.55;2.85;;;16.70;99.90;;;;;;4983685;28;20038;-66
2021/08/07 01:39:42;;;;;;;3.15;2.53;;;16.70;99.90;;;;;;4985101;28;20054;-65
2021/08/07 01:42:10;;;;;;;2.75;2.50;;;16.70;99.90;;;;;;4985850;28;20038;-68
2021/08/07 01:44:38;;;;;;;3.35;2.67;;;16.70;99.90;;;;;;4969544;28;20034;-68
2021/08/07 01:47:55;;;;;;;4.55;3.25;;;16.70;99.90;;;;;;4985631;28;20042;-68
2021/08/07 01:50:31;;;;;;;3.40;2.85;;;16.70;99.90;;;;;;4955344;28;20053;-65
2021/08/07 01:53:02;;;;;;;3.35;3.05;;;16.70;99.90;;;;;;4986651;28;20085;-65
2021/08/07 01:55:35;;;;;;;4.15;3.58;;;16.70;99.90;;;;;;4983422;28;20046;-65
2021/08/07 01:58:33;;;;;;;4.10;2.83;;;16.70;99.90;;;;;;4984463;28;20050;-64
2021/08/07 02:01:01;;;;;;;5.97;3.45;;;16.60;99.90;;;;;;4982474;28;20042;-67
2021/08/07 02:03:39;;;;;;;3.35;2.80;;;16.70;99.90;;;;;;4974770;28;20456;-66
2021/08/07 02:06:07;;;;;;;3.47;2.70;;;16.70;99.90;;;;;;4964550;28;20043;-68
2021/08/07 02:08:39;;;;;;;5.97;3.17;;;16.70;99.90;;;;;;4982576;28;20463;-69
2021/08/07 02:11:10;;;;;;;2.70;2.47;;;16.70;99.90;;;;;;4983754;28;20042;-67
2021/08/07 02:13:39;;;;;;;5.63;3.42;;;16.70;99.90;;;;;;4985120;28;20057;-64
2021/08/07 02:16:16;;;;;;;2.88;2.58;;;16.70;99.90;;;;;;4986313;28;20416;-70
2021/08/07 02:18:46;;;;;;;4.43;2.95;;;16.70;99.90;;;;;;4981553;28;20088;-65
2021/08/07 02:21:16;;;;;;;5.35;2.78;;;16.70;99.90;;;;;;4981150;28;20042;-64
2021/08/07 02:23:48;;;;;;;5.40;3.10;;;16.70;99.90;;;;;;4983675;28;20046;-70
2021/08/07 02:26:25;;;;;;;4.57;2.78;;;16.70;99.90;;;;;;4977169;28;20050;-65
2021/08/07 02:29:00;;;;;;;2.67;2.42;;;16.70;99.90;;;;;;4986995;28;20069;-65
2021/08/07 02:31:28;;;;;;;2.92;2.72;;;16.70;99.90;;;;;;4982881;28;20042;-66
2021/08/07 02:33:56;;;;;;;6.30;3.42;;;16.70;99.90;;;;;;4987508;28;20116;-65
2021/08/07 02:36:26;;;;;;;4.13;2.90;;;16.70;99.90;;;;;;4980821;28;20338;-66
2021/08/07 02:39:01;;;;;;;5.50;3.45;;;16.70;99.90;;;;;;4984237;28;20042;-65
2021/08/07 02:41:28;;;;;;;4.80;2.67;;;16.70;99.90;;;;;;4982617;28;21210;-68
2021/08/07 02:43:56;;;;;;;3.92;2.40;;;16.70;99.90;;;;;;4987834;28;20035;-65
2021/08/07 02:46:24;;;;;;;4.03;2.60;;;16.70;99.90;;;;;;4978410;28;20039;-65
2021/08/07 02:48:55;;;;;;;2.15;2.00;;;16.70;99.90;;;;;;4995158;28;20046;-69
2021/08/07 02:51:24;;;;;;;2.15;2.05;;;16.70;99.90;;;;;;4981268;28;20035;-66
2021/08/07 02:53:55;;;;;;;2.50;2.22;;;16.70;99.90;;;;;;4975641;28;20170;-68
2021/08/07 02:56:25;;;;;;;4.70;2.90;;;16.70;99.90;;;;;;4993174;28;20042;-64
2021/08/07 02:58:53;;;;;;;2.70;2.50;;;16.70;99.90;;;;;;4983237;28;20045;-64
2021/08/07 03:01:21;;;;;;;4.30;2.63;;;16.70;99.90;;;;;;4982457;28;20038;-69
2021/08/07 03:03:52;;;;;;;4.63;2.63;;;16.70;99.90;;;;;;4971863;28;20093;-67
2021/08/07 03:06:21;;;;;;;5.47;2.95;;;16.80;99.90;;;;;;4995466;28;20058;-65
2021/08/07 03:08:50;;;;;;;4.00;2.58;;;16.80;99.90;;;;;;5000466;28;20454;-70
2021/08/07 03:11:18;;;;;;;2.55;2.35;;;16.80;99.90;;;;;;4982953;28;20034;-66
2021/08/07 03:13:47;;;;;;;;;;;16.80;99.90;;;;;;4982539;28;20133;-70
2021/08/07 03:16:17;;;;;;;4.93;4.25;;;16.80;99.90;;;;;;4995729;28;20027;-65
2021/08/07 03:18:47;;;;;;;5.40;3.15;;;16.80;99.90;;;;;;4984088;28;20086;-65
2021/08/07 03:21:14;;;;;;;3.05;2.28;;;16.80;99.90;;;;;;4974898;28;20045;-66
2021/08/07 03:23:55;;;;;;;4.68;3.25;;;16.90;99.90;;;;;;4974073;28;20048;-68
2021/08/07 03:26:24;;;;;;;7.05;2.45;;;16.90;99.90;;;;;;4986075;28;20765;-65
2021/08/07 03:28:53;;;;;;;2.92;2.22;;;16.80;99.90;;;;;;4981745;28;20597;-66
2021/08/07 03:31:22;;;;;;;2.67;2.47;;;16.90;99.90;;;;;;4980149;28;20448;-69
2021/08/07 03:33:49;;;;;;;4.00;2.40;;;16.80;99.90;;;;;;4982145;28;20061;-67
2021/08/07 03:36:17;;;;;;;3.40;1.95;;;16.80;99.90;;;;;;4998894;28;20488;-64
2021/08/07 03:38:50;;;;;;;3.03;2.30;;;16.90;99.90;;;;;;4981063;28;20050;-72
2021/08/07 03:41:17;;;;;;;4.40;3.78;;;16.80;99.90;;;;;;4978330;28;20042;-68
2021/08/07 03:43:44;;;;;;;4.80;2.75;;;16.80;99.90;;;;;;4997320;28;20046;-66
2021/08/07 03:46:14;;;;;;;4.20;2.88;;;16.80;99.90;;;;;;4999099;28;20046;-67
2021/08/07 03:48:41;;;;;;;2.67;2.35;;;16.80;99.90;;;;;;4983152;28;20645;-66
2021/08/07 03:51:08;;;;;;;14.95;4.00;;;16.80;99.90;;;;;;4973360;28;20039;-67
2021/08/07 03:53:42;;;;;;;3.25;2.20;;;16.80;99.90;;;;;;4976952;28;20138;-64
2021/08/07 03:56:11;;;;;;;4.50;3.20;;;16.80;99.90;;;;;;4969087;28;20117;-71
2021/08/07 03:58:39;;;;;;;3.85;2.33;;;16.90;99.90;;;;;;4979185;28;20049;-66
2021/08/07 04:01:12;;;;;;;4.60;2.55;;;16.90;99.90;;;;;;4980233;28;20046;-66
2021/08/07 04:03:40;;;;;;;4.85;2.25;;;16.90;99.90;;;;;;4982647;28;20492;-66
2021/08/07 04:06:29;;;;;;;2.88;2.58;;;16.90;99.90;;;;;;4979089;28;20066;-64
2021/08/07 04:08:59;;;;;;;5.05;2.40;;;16.90;99.90;;;;;;4974843;28;20042;-66
2021/08/07 04:11:26;;;;;;;2.72;2.50;;;16.90;99.90;;;;;;4981871;28;20100;-68
2021/08/07 04:13:59;;;;;;;3.47;2.55;;;16.90;99.90;;;;;;4981564;28;20047;-68
2021/08/07 04:16:27;;;;;;;2.97;2.10;;;17.00;99.90;;;;;;4978721;28;20350;-66
2021/08/07 04:18:57;;;;;;;;;;;17.00;99.90;;;;;;4974940;28;20046;-67
2021/08/07 04:21:24;;;;;;;3.38;2.83;;;17.00;99.90;;;;;;4978282;28;19961;-70
2021/08/07 04:23:52;;;;;;;6.43;2.63;;;17.00;99.90;;;;;;4993372;28;20046;-67
2021/08/07 04:26:19;;;;;;;4.70;2.42;;;17.00;99.90;;;;;;4979392;28;20116;-65
2021/08/07 04:28:46;;;;;;;7.30;4.07;;;17.00;99.90;;;;;;4982907;28;20502;-69
2021/08/07 04:31:14;;;;;;;3.38;2.58;;;17.00;99.90;;;;;;4982171;28;20030;-65
2021/08/07 04:33:41;;;;;;;3.47;2.70;;;17.00;99.90;;;;;;4981317;28;20112;-65
2021/08/07 04:36:11;;;;;;;3.77;3.40;;;17.00;99.90;;;;;;4986167;28;20619;-68
2021/08/07 04:38:39;;;;;;;4.28;2.33;;;17.00;99.90;;;;;;4978555;28;20061;-67
2021/08/07 04:41:06;;;;;;;2.72;2.22;;;17.10;99.90;;;;;;4986237;28;20051;-69
2021/08/07 04:43:36;;;;;;;4.25;2.80;;;17.10;99.90;;;;;;4979443;28;20908;-64
2021/08/07 04:46:03;;;;;;;4.15;2.20;;;17.10;99.90;;;;;;4984055;28;20042;-65
2021/08/07 04:48:30;;;;;;;3.72;2.38;;;17.00;99.90;;;;;;4980802;28;20129;-67
2021/08/07 04:51:11;;;;;;;;;;;17.00;99.90;;;;;;4982698;28;20050;-68
2021/08/07 04:53:41;;;;;;;2.58;2.38;;;17.10;99.90;;;;;;4982763;28;19953;-70
2021/08/07 04:56:14;;;;;;;5.30;2.67;;;17.10;99.90;;;;;;4976613;28;20475;-64
2021/08/07 04:58:41;;;;;;;4.07;2.65;;;17.10;99.90;;;;;;4984493;28;20042;-68
2021/08/07 05:01:10;;;;;;;4.07;2.75;;;17.00;99.90;;;;;;4983425;28;20133;-65
2021/08/07 05:03:37;;;;;;;3.10;2.67;;;17.10;99.90;;;;;;4972565;28;20501;-68
2021/08/07 05:06:07;;;;;;;;;;;17.00;99.90;;;;;;4973818;28;20050;-67
2021/08/07 05:08:38;;;;;;;3.58;2.78;;;17.10;99.90;;;;;;4974790;28;19925;-66
2021/08/07 05:11:05;;;;;;;3.55;2.90;;;17.10;99.90;;;;;;4982807;28;20043;-65
2021/08/07 05:13:36;;;;;;;4.55;2.67;;;17.10;99.90;;;;;;4982479;28;20058;-67
2021/08/07 05:16:05;;;;;;;2.85;2.65;;;17.10;99.90;;;;;;4980045;28;20078;-71
2021/08/07 05:18:32;;;;;;;2.08;1.90;;;17.10;99.90;;;;;;4977944;28;20081;-64
2021/08/07 05:21:02;;;;;;;3.13;2.53;;;17.10;99.90;;;;;;4981574;28;20102;-65
2021/08/07 05:23:30;;;;;;;2.25;2.03;;;17.10;99.90;;;;;;4981666;28;20045;-66
2021/08/07 05:25:57;;;;;;;3.97;2.30;;;17.10;99.90;;;;;;4982738;28;20042;-65
2021/08/07 05:28:24;;;;;;;2.63;2.42;;;17.10;99.90;;;;;;4995924;28;20038;-65
2021/08/07 05:30:51;;;;;;;2.50;2.30;;;17.20;99.90;;;;;;4981255;28;20038;-67
2021/08/07 05:33:19;;;;;;;3.28;2.40;;;17.20;99.90;;;;;;4996485;28;20073;-67
2021/08/07 05:35:46;;;;;;;2.95;2.70;;;17.30;99.90;;;;;;4970922;28;20105;-65
2021/08/07 05:38:17;;;;;;;2.85;1.90;;;17.30;99.90;;;;;;4986102;28;20042;-68
2021/08/07 05:40:44;;;;;;;2.75;2.55;;;17.30;99.90;;;;;;4996128;28;20046;-66
2021/08/07 05:43:11;;;;;;;3.38;2.50;;;17.30;99.90;;;;;;4974061;28;20081;-65
2021/08/07 05:45:38;;;;;;;3.85;2.33;;;17.40;99.90;;;;;;4987662;28;20141;-64
2021/08/07 05:48:05;;;;;;;2.90;2.58;;;17.30;99.90;;;;;;4982160;28;20046;-65
2021/08/07 05:50:36;;;;;;;5.07;3.70;;;17.30;99.90;;;;;;4979196;28;20042;-70
2021/08/07 05:53:04;;;;;;;4.25;2.58;;;17.20;99.90;;;;;;4980784;28;20042;-66
2021/08/07 05:55:32;;;;;;;2.90;2.50;;;17.20;99.90;;;;;;4983059;28;20038;-67
2021/08/07 05:58:00;;;;;;;4.85;3.58;;;17.10;99.90;;;;;;4983074;28;20471;-66
2021/08/07 06:00:27;;;;;;;2.50;2.30;;;17.10;99.90;;;;;;4981795;28;21045;-65
2021/08/07 06:02:55;;;;;;;2.40;2.20;;;17.00;99.90;;;;;;4984568;28;20054;-68
2021/08/07 06:05:28;;;;;;;3.55;2.95;;;16.90;99.90;;;;;;4983249;28;20046;-70
2021/08/07 06:07:55;;;;;;;2.78;2.58;;;16.80;99.90;;;;;;4980536;28;20137;-66
2021/08/07 06:10:22;;;;;;;3.33;2.92;;;16.70;99.90;;;;;;4982625;28;20050;-67
2021/08/07 06:12:51;;;;;;;3.28;2.97;;;16.60;99.90;;;;;;4979314;28;20126;-69
2021/08/07 06:15:21;;;;;;;2.97;2.75;;;16.50;99.90;;;;;;4985622;28;20043;-65
2021/08/07 06:17:48;;;;;;;3.83;3.28;;;16.50;99.90;;;;;;4981688;28;20116;-67
2021/08/07 06:20:16;;;;;;;4.47;2.88;;;16.50;99.90;;;;;;4994641;28;20046;-66
2021/08/07 06:22:47;;;;;;;3.08;2.35;;;16.50;99.90;;;;;;4982928;28;20041;-67
2021/08/07 06:25:14;;;;;;;2.47;2.28;;;16.50;99.90;;;;;;4974627;28;20038;-68
2021/08/07 06:27:43;;;;;;;2.92;2.70;;;16.50;99.90;;;;;;4974943;28;20049;-65
2021/08/07 06:30:11;;;;;;;3.92;3.08;;;16.50;99.90;;;;;;4982457;28;20387;-66
2021/08/07 06:32:38;;;;;;;3.45;2.72;;;16.40;99.90;;;;;;4979203;28;20293;-63
2021/08/07 06:35:06;;;;;;;3.30;2.08;;;16.40;99.90;;;;;;4985116;28;20038;-67
2021/08/07 06:37:33;;;;;;;2.83;2.63;;;16.40;99.90;;;;;;4982620;28;20046;-68
2021/08/07 06:40:01;;;;;;;2.95;2.55;;;16.40;99.90;;;;;;4985762;28;20073;-66
2021/08/07 06:42:29;;;;;;;3.35;2.53;;;16.40;99.90;;;;;;4983202;28;20057;-64
2021/08/07 06:45:31;;;;;;;2.30;2.10;;;16.40;99.90;;;;;;4972946;28;20047;-66
2021/08/07 06:48:03;;;;;;;2.80;2.60;;;16.40;99.90;;;;;;4980953;28;20038;-65
2021/08/07 06:50:32;;;;;;;2.30;2.10;;;16.30;99.90;;;;;;4981365;28;20042;-65
2021/08/07 06:52:59;;;;;;;2.20;2.00;;;16.30;99.90;;;;;;4986261;28;20070;-64
2021/08/07 06:55:26;;;;;;;2.25;2.10;;;16.30;99.90;;;;;;4981513;28;20039;-65
2021/08/07 06:57:54;;;;;;;2.55;1.95;;;16.20;99.90;;;;;;4986420;28;20044;-68
2021/08/07 07:00:22;;;;;;;2.95;2.00;;;16.20;99.90;;;;;;4981154;28;20038;-67
2021/08/07 07:02:49;;;;;;;2.60;2.40;;;16.20;99.90;;;;;;4984604;28;20181;-67
2021/08/07 07:05:17;;;;;;;2.55;2.30;;;16.20;99.90;;;;;;4983260;28;20058;-64
2021/08/07 07:07:45;;;;;;;3.28;2.38;;;16.10;99.90;;;;;;4986416;28;20042;-65
2021/08/07 07:10:14;;;;;;;3.22;2.20;;;16.10;99.90;;;;;;4986280;28;20360;-71
2021/08/07 07:12:42;;;;;;;3.50;2.22;;;16.20;99.90;;;;;;4982461;28;20049;-68
2021/08/07 07:15:10;;;;;;;2.58;2.33;;;16.20;99.90;;;;;;4981156;28;20042;-70
2021/08/07 07:17:38;;;;;;;3.40;2.35;;;16.20;99.90;;;;;;4986878;28;20061;-65
2021/08/07 07:20:06;;;;;;;2.95;2.30;;;16.10;99.90;;;;;;4967650;28;20043;-68
2021/08/07 07:22:36;;;;;;;3.23;2.93;;;16.20;99.90;;;;;;4980177;28;20045;-65
2021/08/07 07:25:05;;;;;;;2.78;2.45;;;16.10;99.90;;;;;;4978107;28;20053;-65
2021/08/07 07:27:32;;;;;;;4.40;3.03;;;16.10;99.90;;;;;;4994484;28;20046;-64
2021/08/07 07:29:59;;;;;;;2.55;2.17;;;16.10;99.90;;;;;;4979013;28;20150;-65
2021/08/07 07:32:26;;;;;;;5.07;3.63;;;16.10;99.90;;;;;;4968569;28;20046;-64
2021/08/07 07:34:53;;;;;;;4.90;3.25;;;16.10;99.90;;;;;;4982162;28;20097;-65
2021/08/07 07:37:21;;;;;;;5.93;2.63;;;16.00;99.90;;;;;;4983087;28;20515;-65
2021/08/07 07:39:48;;;;;;;3.63;2.55;;;16.10;99.90;;;;;;4982626;28;20042;-65
2021/08/07 07:42:16;;;;;;;3.55;2.38;;;16.00;99.90;;;;;;4982627;28;20129;-65
2021/08/07 07:44:44;;;;;;;2.65;2.22;;;16.00;99.90;;;;;;4969127;28;20046;-65
2021/08/07 07:47:10;;;;;;;4.05;2.30;;;16.10;99.90;;;;;;4983958;28;20057;-64
2021/08/07 07:49:38;;;;;;;2.78;1.83;;;16.10;99.90;;;;;;4985686;28;20687;-65
2021/08/07 07:52:08;;;;;;;2.47;2.28;;;16.10;99.90;;;;;;4983681;28;20042;-67
2021/08/07 07:54:37;;;;;;;2.60;2.10;;;16.10;99.90;;;;;;4980951;28;20050;-66
2021/08/07 07:57:05;;;;;;;2.42;1.80;;;16.10;99.90;;;;;;4982515;28;20348;-65
2021/08/07 07:59:34;;;;;;;1.63;1.50;;;16.10;99.90;;;;;;4973216;28;20070;-66
2021/08/07 08:02:04;;;;;;;1.50;1.40;;;16.20;99.90;;;;;;4968254;28;20052;-65
2021/08/07 08:04:32;;;;;;;1.55;1.45;;;16.20;99.90;;;;;;4981220;28;20050;-64
2021/08/07 08:07:01;;;;;;;2.28;1.70;;;16.20;99.90;;;;;;4993571;28;20042;-64
2021/08/07 08:09:30;;;;;;;4.60;2.40;;;16.20;99.90;;;;;;4983429;28;20053;-68
2021/08/07 08:11:57;;;;;;;2.35;1.73;;;16.30;99.90;;;;;;4982869;28;20439;-64
2021/08/07 08:14:24;;;;;;;2.28;1.92;;;16.30;99.90;;;;;;4982209;28;20081;-65
2021/08/07 08:16:52;;;;;;;1.77;1.58;;;16.30;99.90;;;;;;4982010;28;20050;-67
2021/08/07 08:19:19;;;;;;;3.28;1.50;;;16.30;99.90;;;;;;4985108;28;20058;-65
2021/08/07 08:21:46;;;;;;;1.60;1.20;;;16.10;99.90;;;;;;4969643;28;20417;-65
2021/08/07 08:24:13;;;;;;;1.58;1.27;;;16.10;99.90;;;;;;4980585;28;20050;-66
2021/08/07 08:26:41;;;;;;;6.18;1.80;;;16.00;99.90;;;;;;4997434;28;20045;-66
2021/08/07 08:29:09;;;;;;;1.60;1.25;;;15.90;99.90;;;;;;4983179;28;20077;-64
2021/08/07 08:31:35;;;;;;;3.20;1.67;;;15.80;99.90;;;;;;4980759;28;20043;-67
2021/08/07 08:34:03;;;;;;;2.20;1.58;;;15.70;99.90;;;;;;4974963;28;20058;-67
2021/08/07 08:36:31;;;;;;;3.72;1.20;;;15.70;99.90;;;;;;4978286;28;20054;-67
2021/08/07 08:38:58;;;;;;;4.05;1.17;;;15.70;99.90;;;;;;4985079;28;20046;-68
2021/08/07 08:41:26;;;;;;;2.53;2.03;;;15.70;99.90;;;;;;4980574;28;20054;-65
2021/08/07 08:43:55;;;;;;;2.95;1.65;;;15.60;99.90;;;;;;4985405;28;20042;-64
2021/08/07 08:46:23;;;;;;;3.13;2.20;;;15.60;99.90;;;;;;4977036;28;20051;-65
2021/08/07 08:48:51;;;;;;;2.42;1.48;;;15.40;99.90;;;;;;4984809;28;20054;-64
2021/08/07 08:51:19;;;;;;;1.95;1.75;;;15.40;99.90;;;;;;4979939;28;20681;-65
2021/08/07 08:53:47;;;;;;;3.50;2.00;;;15.50;99.90;;;;;;4983830;28;20468;-63
2021/08/07 08:56:14;;;;;;;4.00;2.55;;;15.50;99.90;;;;;;4980088;28;20120;-66
2021/08/07 08:58:41;;;;;;;3.20;2.80;;;15.40;99.90;;;;;;4999338;28;20047;-65
2021/08/07 09:01:09;;;;;;;3.28;2.95;;;15.40;99.90;;;;;;4981235;28;20056;-65
2021/08/07 09:03:37;;;;;;;2.63;2.42;;;15.40;99.90;;;;;;4973259;28;20073;-64
2021/08/07 09:06:06;;;;;;;2.83;2.47;;;15.40;99.90;;;;;;4973487;28;20038;-65
2021/08/07 09:08:33;;;;;;;8.18;3.15;;;15.50;99.90;;;;;;4974904;28;20132;-66
2021/08/07 09:11:22;;;;;;;4.03;2.50;;;15.50;99.90;;;;;;4975870;28;20043;-65
2021/08/07 09:14:13;;;;;;;2.92;2.70;;;15.60;99.90;;;;;;4970523;28;20046;-64
2021/08/07 09:17:02;;;;;;;8.18;3.03;;;15.60;99.90;;;;;;4981736;28;20046;-65
2021/08/07 09:19:39;;;;;;;2.65;2.15;;;15.70;99.90;;;;;;4980942;28;20492;-64
2021/08/07 09:22:18;;;;;;;3.45;2.45;;;15.70;99.90;;;;;;4979088;28;20752;-65
2021/08/07 09:24:58;;;;;;;6.07;4.22;;;15.80;99.90;;;;;;4979932;28;20910;-67
2021/08/07 09:27:36;;;;;;;6.72;3.35;;;15.80;99.90;;;;;;4982864;28;20046;-65
2021/08/07 09:30:26;;;;;;;8.88;3.35;;;15.80;99.90;;;;;;4980702;28;20058;-67
2021/08/07 09:33:12;;;;;;;4.90;2.80;;;15.80;99.90;;;;;;4975768;28;20038;-66
2021/08/07 09:35:44;;;;;;;5.63;3.78;;;15.90;99.90;;;;;;4910518;28;20600;-66
2021/08/07 09:38:30;;;;;;;6.20;4.75;;;15.90;99.90;;;;;;1670541;28;10023428;-65
2021/08/07 09:41:08;;;;;;;4.30;3.10;;;16.00;99.90;;;;;;3963243;28;10001487;-65
2021/08/07 09:43:42;;;;;;;4.25;2.35;;;16.00;99.90;;;;;;4980680;28;20043;-65
2021/08/07 09:46:15;;;;;;;9.07;4.43;;;16.10;99.90;;;;;;4985346;28;20471;-68
2021/08/07 09:48:55;;;;;;;5.47;2.58;;;16.10;99.90;;;;;;4991457;28;20046;-66
2021/08/07 09:51:30;;;;;;;9.40;2.33;;;16.10;99.90;;;;;;4966019;28;20055;-64
2021/08/07 09:54:05;;;;;;;3.10;1.60;;;16.00;99.90;;;;;;4979119;28;20046;-64
2021/08/07 09:56:43;;;;;;;7.70;1.95;;;16.00;99.90;;;;;;4981938;28;20061;-64
2021/08/07 09:59:11;;;;;;;4.97;2.63;;;16.00;99.90;;;;;;4964512;28;20053;-66
2021/08/07 10:01:40;;;;;;;3.65;1.90;;;15.90;99.90;;;;;;4976475;28;20049;-67
2021/08/07 10:04:11;;;;;;;13.30;3.25;;;15.90;99.90;;;;;;4983354;28;20041;-66
2021/08/07 10:06:42;;;;;;;4.13;2.15;;;16.00;99.90;;;;;;4984854;28;20360;-66
2021/08/07 10:09:11;;;;;;;5.15;2.45;;;16.00;99.90;;;;;;4987412;28;20053;-68
2021/08/07 10:11:58;;;;;;;6.20;2.92;;;16.00;99.90;;;;;;4972254;28;20050;-65
2021/08/07 10:14:26;;;;;;;5.75;2.15;;;16.00;99.90;;;;;;4994743;28;20043;-66
2021/08/07 10:16:53;;;;;;;4.35;2.10;;;16.10;99.90;;;;;;4998582;28;20080;-65
2021/08/07 10:19:21;;;;;;;5.63;2.13;;;16.10;99.90;;;;;;5003520;28;20042;-65
2021/08/07 10:21:51;;;;;;;2.63;1.88;;;16.10;99.90;;;;;;4983183;28;20070;-64
2021/08/07 10:24:19;;;;;;;5.80;2.33;;;16.10;99.90;;;;;;4983417;28;20096;-67
2021/08/07 10:26:48;;;;;;;4.10;2.20;;;16.20;99.90;;;;;;4987454;28;20306;-65
2021/08/07 10:29:17;;;;;;;2.97;2.15;;;16.30;99.90;;;;;;4975918;28;20035;-68
2021/08/07 10:31:45;;;;;;;2.78;2.38;;;16.40;99.90;;;;;;4985390;28;20127;-65
2021/08/07 10:34:15;;;;;;;9.10;2.75;;;16.40;99.90;;;;;;4989367;28;20482;-68
2021/08/07 10:36:42;;;;;;;6.83;3.40;;;16.50;99.90;;;;;;4968892;28;20034;-66
2021/08/07 10:39:09;;;;;;;6.78;2.33;;;16.60;99.90;;;;;;4998883;28;20058;-67
2021/08/07 10:41:37;;;;;;;5.80;2.60;;;16.60;99.90;;;;;;4983901;28;20058;-65
2021/08/07 10:44:05;;;;;;;3.72;2.15;;;16.50;99.90;;;;;;4979984;28;21527;-67
2021/08/07 10:46:33;;;;;;;3.47;2.38;;;16.50;99.90;;;;;;4983395;28;22538;-64
2021/08/07 10:49:02;;;;;;;5.68;2.55;;;16.40;99.90;;;;;;4982591;28;20046;-66
2021/08/07 10:51:37;;;;;;;6.35;2.17;;;16.20;99.90;;;;;;4983895;28;20054;-65
2021/08/07 10:54:26;;;;;;;5.95;2.42;;;16.10;99.90;;;;;;4986190;28;20377;-64
2021/08/07 10:56:54;;;;;;;2.50;1.67;;;16.00;99.90;;;;;;4984797;28;20438;-64
2021/08/07 10:59:23;;;;;;;5.15;2.92;;;15.90;99.90;;;;;;4984461;28;20066;-64
2021/08/07 11:01:56;;;;;;;2.33;2.13;;;15.80;99.90;;;;;;4975651;28;20045;-65
2021/08/07 11:04:30;;;;;;;3.33;1.75;;;15.80;99.90;;;;;;4978488;28;20445;-69
2021/08/07 11:07:05;;;;;;;2.72;2.42;;;15.90;99.90;;;;;;4969581;28;20117;-64
2021/08/07 11:09:39;;;;;;;5.35;1.95;;;15.80;99.90;;;;;;4986770;28;20046;-67
2021/08/07 11:12:06;;;;;;;2.75;1.95;;;15.90;99.90;;;;;;4966643;28;20043;-65
2021/08/07 11:14:33;;;;;;;1.88;1.17;;;15.90;99.90;;;;;;4985154;28;22301;-67
2021/08/07 11:17:04;;;;;;;2.17;1.33;;;15.80;99.90;;;;;;4973890;28;20564;-65
2021/08/07 11:19:54;;;;;;;6.40;2.25;;;15.80;99.90;;;;;;4985973;28;20050;-65
2021/08/07 11:22:36;;;;;;;4.68;3.00;;;15.80;99.90;;;;;;4979772;28;20050;-68
2021/08/07 11:25:10;;;;;;;6.13;1.92;;;15.90;99.90;;;;;;4981780;28;20377;-71
2021/08/07 11:27:46;;;;;;;2.70;1.65;;;15.90;99.90;;;;;;4982733;28;20532;-64
2021/08/07 11:30:25;;;;;;;7.38;1.92;;;15.90;99.90;;;;;;4978952;28;20054;-67
2021/08/07 11:32:58;;;;;;;4.70;1.90;;;16.00;99.90;;;;;;4982692;28;20042;-65
2021/08/07 11:35:49;;;;;;;2.33;1.25;;;16.10;99.90;;;;;;4984207;28;20050;-65
2021/08/07 11:38:18;;;;;;;1.67;1.40;;;16.10;99.90;;;;;;4984607;28;20042;-67
2021/08/07 11:41:10;;;;;;;8.82;2.08;;;16.20;99.90;;;;;;4980437;28;20382;-67
2021/08/07 11:43:40;;;;;;;2.00;1.85;;;16.20;99.90;;;;;;4987344;28;20046;-65
2021/08/07 11:46:13;;;;;;;4.68;2.15;;;16.20;99.90;;;;;;4983143;28;20048;-65
2021/08/07 11:48:44;;;;;;;6.25;1.98;;;16.20;99.90;;;;;;4986082;28;20060;-65
2021/08/07 11:51:21;;;;;;;3.85;1.70;;;16.20;99.90;;;;;;4982150;28;20042;-68
2021/08/07 11:53:48;;;;;;;3.40;2.38;;;16.10;99.90;;;;;;4981815;28;20043;-64
2021/08/07 11:56:20;;;;;;;6.40;2.97;;;16.00;99.90;;;;;;4980182;28;20045;-68
2021/08/07 11:58:53;;;;;;;1.52;1.42;;;16.00;99.90;;;;;;4986198;28;20092;-66
2021/08/07 12:01:21;;;;;;;2.15;1.52;;;15.80;99.90;;;;;;4984072;28;20468;-65
2021/08/07 12:03:50;;;;;;;3.80;1.92;;;15.70;99.90;;;;;;4966818;28;20491;-65
2021/08/07 12:06:20;;;;;;;2.53;1.92;;;15.90;99.90;;;;;;4981709;28;20046;-65
2021/08/07 12:08:48;;;;;;;7.18;2.13;;;15.90;99.90;;;;;;4984760;28;20330;-65
2021/08/07 12:11:18;;;;;;;4.50;2.53;;;15.90;99.90;;;;;;4986585;28;20046;-72
2021/08/07 12:13:57;;;;;;;2.88;1.73;;;15.90;99.90;;;;;;4983274;28;20511;-66
2021/08/07 12:16:39;;;;;;;4.15;1.85;;;16.00;99.90;;;;;;4985222;28;20567;-65
2021/08/07 12:19:15;;;;;;;5.25;2.25;;;16.00;99.90;;;;;;4982025;28;20053;-66
2021/08/07 12:21:43;;;;;;;11.15;2.60;;;16.00;99.90;;;;;;4982896;28;20050;-70
2021/08/07 12:24:12;;;;;;;6.07;1.60;;;16.00;99.90;;;;;;4980248;28;20046;-65
2021/08/07 12:26:42;;;;;;;4.07;2.35;;;16.00;99.90;;;;;;4984207;28;20808;-65
2021/08/07 12:29:23;;;;;;;6.53;2.95;;;15.80;99.90;;;;;;4982312;28;20065;-69
2021/08/07 12:31:56;;;;;;;7.13;1.98;;;15.70;99.90;;;;;;4977637;28;20079;-64
2021/08/07 12:34:31;;;;;;;2.38;1.67;;;15.70;99.90;;;;;;4980547;28;20042;-67
2021/08/07 12:37:05;;;;;;;5.55;1.67;;;15.70;99.90;;;;;;4984616;28;20046;-66
2021/08/07 12:39:41;;;;;;;4.78;1.48;;;15.60;99.90;;;;;;4983958;28;20053;-68
2021/08/07 12:42:09;;;;;;;4.38;1.77;;;15.60;99.90;;;;;;4982412;28;20046;-67
2021/08/07 12:44:37;;;;;;;5.20;2.30;;;15.50;99.90;;;;;;4981047;28;20062;-65
2021/08/07 12:47:04;;;;;;;2.42;1.70;;;15.60;99.90;;;;;;4982991;28;20042;-67
2021/08/07 12:49:32;;;;;;;4.82;2.47;;;15.60;99.90;;;;;;4974618;28;20050;-67
2021/08/07 12:52:02;;;;;;;10.50;2.75;;;15.60;99.90;;;;;;4981802;28;20185;-65
2021/08/07 12:54:29;;;;;;;4.15;2.13;;;15.70;99.90;;;;;;4982222;28;20046;-65
2021/08/07 12:56:56;;;;;;;2.30;1.95;;;15.70;99.90;;;;;;4981326;28;20142;-65
2021/08/07 12:59:23;;;;;;;7.07;2.03;;;15.70;99.90;;;;;;4975590;28;20105;-67
2021/08/07 13:02:07;;;;;;;15.35;2.92;;;15.70;99.90;;;;;;4976119;28;20039;-65
2021/08/07 13:04:47;;;;;;;1.98;1.40;;;15.80;99.90;;;;;;4965423;28;20439;-66
2021/08/07 13:07:15;;;;;;;4.55;1.45;;;15.80;99.90;;;;;;4983943;28;20041;-65